F46 weather

Rockwall Municipal Airport
Rockwall, Texas, United States

Public forecast

Using degrees Fahrenheit for public forecast. Weather courtesy of forecast.io.

METAR (pilot weather report)

Retrieved UTC (0 seconds ago):

TAF (pilot weather forecast)

Closest forecast is Dallas Love Field, 21.6 nm (40.0 km) WSW. Retrieved 2019/06/25 06:22 UTC (2 hours ago):

TAF KDAL 250520Z 2506/2606 14006KT P6SM OVC250 FM251300 17007KT P6SM SCT025 BKN060 TEMPO 2514/2516 BKN022 FM251800 17010KT P6SM SCT060 SCT150 FM252100 18012KT P6SM VCTS BKN070CB FM260000 15011KT P6SM SCT090 BKN300